Flight Track Log - Related Links

Times and Time Zones

All times are in EDT time to prevent confusion due to time zone crossing. See the VOZ1153 flight status page for this flight to view local times or setup timezone preferences in your user account.

Time Position Orientation Groundspeed Altitude Reporting Facility
EDT Latitude Longitude Course Direction KTS MPH feet Rate Location/Type
Thu 09:44:58 PM -41.5238 147.1941 North 129 148 2,700  Level Aus ATC (RADAR)
Thu 09:46:53 PM -41.4129 147.2164 359° North 240 276 7,500 2,800 Climbing Aus ATC (RADAR)
Thu 09:47:43 PM -41.3475 147.2145 359° North 274 315 10,400 3,576 Climbing Aus ATC (RADAR)
Thu 09:48:32 PM -41.2814 147.2126 359° North 280 322 13,400 3,708 Climbing Aus ATC (RADAR)
Thu 09:49:12 PM -41.2251 147.2107 359° North 295 339 15,900 3,035 Climbing Aus ATC (RADAR)
Thu 09:49:57 PM -41.1608 147.2098 North 310 357 17,700 2,520 Climbing Aus ATC (RADAR)
Thu 09:51:42 PM -40.9912 147.2131 22° Northeast 377 434 22,200 2,435 Climbing Aus ATC (RADAR)
Thu 09:52:47 PM -40.8799 147.2740 21° North 406 467 24,600 2,340 Climbing Aus ATC (RADAR)
Thu 09:53:22 PM -40.8178 147.3051 20° North 410 472 26,100 2,400 Climbing Aus ATC (RADAR)
Thu 09:53:57 PM -40.7551 147.3357 21° North 412 474 27,400 2,047 Climbing Aus ATC (RADAR)
Thu 09:54:47 PM -40.6645 147.3816 21° North 421 484 29,000 1,745 Climbing Aus ATC (RADAR)
Thu 09:55:47 PM -40.5530 147.4371 21° North 433 498 30,600 1,467 Climbing Aus ATC (RADAR)
Thu 09:57:02 PM -40.4094 147.5079 21° North 449 517 32,300 1,344 Climbing Aus ATC (RADAR)
Thu 09:57:52 PM -40.3110 147.5564 22° Northeast 457 526 33,400 1,515 Climbing Aus ATC (RADAR)
Thu 09:58:41 PM -40.2098 147.6086 20° North 467 537 34,800 1,747 Climbing Aus ATC (RADAR)
Thu 09:59:11 PM -40.1506 147.6374 20° North 462 532 35,700 1,662 Climbing Aus ATC (RADAR)
Thu 09:59:46 PM -40.0840 147.6696 21° North 449 517 36,600 1,440 Climbing Aus ATC (RADAR)
Thu 10:00:26 PM -40.0054 147.7081 20° North 450 518 37,500 1,154 Climbing Aus ATC (RADAR)
Thu 10:01:56 PM -39.8326 147.7918 20° North 447 514 39,100 800 Climbing Aus ATC (RADAR)
Thu 10:02:26 PM -39.7771 147.8175 20° North 434 499 39,100  Level Aus ATC (RADAR)
Thu 10:03:26 PM -39.6637 147.8712 21° North 430 495 39,100  Level Aus ATC (RADAR)
Thu 10:04:11 PM -39.5758 147.9145 20° North 446 513 39,100  Level Aus ATC (RADAR)
Thu 10:04:51 PM -39.4978 147.9522 20° North 449 517 39,100  Level Aus ATC (RADAR)
Thu 10:05:36 PM -39.4115 147.9935 20° North 446 513 39,100  Level Aus ATC (RADAR)
Thu 10:07:31 PM -39.1895 148.0985 20° North 446 513 39,100  Level Aus ATC (RADAR)
Thu 10:08:31 PM -39.0722 148.1542 20° North 448 516 39,100  Level Aus ATC (RADAR)
Thu 10:09:25 PM -38.9610 148.2075 20° North 463 533 39,100  Level Aus ATC (RADAR)
Thu 10:10:00 PM -38.8947 148.2382 20° North 448 516 39,100  Level Aus ATC (RADAR)
Thu 10:10:50 PM -38.7965 148.2851 20° North 454 522 39,100  Level Aus ATC (RADAR)
Thu 10:12:30 PM -38.6017 148.3757 20° North 456 525 39,100  Level Aus ATC (RADAR)
Thu 10:13:30 PM -38.4869 148.4281 11° North 445 512 39,100  Level Aus ATC (RADAR)
Thu 10:14:15 PM -38.4002 148.4492 11° North 431 496 39,100  Level Aus ATC (RADAR)
Thu 10:14:50 PM -38.3323 148.4660 11° North 428 493 39,100  Level Aus ATC (RADAR)
Thu 10:15:40 PM -38.2347 148.4905 11° North 427 491 39,100  Level Aus ATC (RADAR)
Thu 10:17:30 PM -38.0221 148.5432 11° North 427 491 39,100  Level Aus ATC (RADAR)
Thu 10:18:30 PM -37.9061 148.5716 11° North 426 490 39,100  Level Aus ATC (RADAR)
Thu 10:19:10 PM -37.8294 148.5909 11° North 422 486 39,100  Level Aus ATC (RADAR)
Thu 10:19:45 PM -37.7618 148.6070 11° North 428 493 39,100  Level Aus ATC (RADAR)
Thu 10:20:35 PM -37.6659 148.6301 11° North 424 488 39,100  Level Aus ATC (RADAR)
Thu 10:22:15 PM -37.4733 148.6777 11° North 427 491 39,100  Level Aus ATC (RADAR)
Thu 10:22:45 PM -37.4150 148.6914 11° North 429 494 39,100  Level Aus ATC (RADAR)
Thu 10:23:40 PM -37.3081 148.7174 11° North 429 494 39,100  Level Aus ATC (RADAR)
Thu 10:24:30 PM -37.2111 148.7411 11° North 429 494 39,100  Level Aus ATC (RADAR)
Thu 10:25:04 PM -37.1436 148.7574 11° North 427 491 39,100  Level Aus ATC (RADAR)
Thu 10:25:54 PM -37.0470 148.7807 11° North 426 490 39,100  Level Aus ATC (RADAR)
Thu 10:27:34 PM -36.8524 148.8274 11° North 430 495 39,100  Level Aus ATC (RADAR)
Thu 10:28:04 PM -36.7941 148.8413 11° North 428 493 39,100  Level Aus ATC (RADAR)
Thu 10:29:04 PM -36.6787 148.8686 11° North 420 483 39,100  Level Aus ATC (RADAR)
Thu 10:29:44 PM -36.6037 148.8861 11° North 413 475 39,100  Level Aus ATC (RADAR)
Thu 10:30:19 PM -36.5384 148.9017 11° North 411 473 39,100  Level Aus ATC (RADAR)
Thu 10:31:09 PM -36.4449 148.9238 11° North 414 476 39,100  Level Aus ATC (RADAR)
Thu 10:32:49 PM -36.2530 148.9689 11° North 425 489 39,100  Level Aus ATC (RADAR)
Thu 10:33:44 PM -36.1473 148.9942 11° North 424 488 39,100  Level Aus ATC (RADAR)
Thu 10:34:34 PM -36.0522 149.0167 11° North 418 481 39,100  Level Aus ATC (RADAR)
Thu 10:35:09 PM -35.9859 149.0319 11° North 416 479 39,100  Level Aus ATC (RADAR)
Thu 10:35:59 PM -35.8906 149.0547 10° North 419 482 39,100  Level Aus ATC (RADAR)
Thu 10:36:29 PM -35.8333 149.0674 11° North 421 484 39,100  Level Aus ATC (RADAR)
Thu 10:37:44 PM -35.6892 149.1014 11° North 425 489 39,100  Level Aus ATC (RADAR)
Thu 10:38:14 PM -35.6310 149.1149 11° North 427 491 39,100  Level Aus ATC (RADAR)
Thu 10:39:13 PM -35.5142 149.1422 10° North 431 496 39,100  Level Aus ATC (RADAR)
Thu 10:39:53 PM -35.4353 149.1600 10° North 435 501 39,100  Level Aus ATC (RADAR)
Thu 10:40:28 PM -35.3656 149.1755 11° North 437 503 39,100  Level Aus ATC (RADAR)
Thu 10:41:18 PM -35.2674 149.1990 17° North 432 497 39,100  Level Aus ATC (RADAR)
Thu 10:43:23 PM -35.0211 149.2891 16° North 446 513 39,100 -367 Level Aus ATC (RADAR)
Thu 10:44:18 PM -34.9127 149.3280 16° North 438 504 38,000 -1,800 Descending Aus ATC (RADAR)
Thu 10:45:03 PM -34.8253 149.3587 20° North 437 503 36,100 -2,625 Descending Aus ATC (RADAR)
Thu 10:45:38 PM -34.7582 149.3887 53° Northeast 440 506 34,500 -2,930 Descending Aus ATC (RADAR)
Thu 10:46:29 PM -34.6933 149.4949 62° Northeast 464 534 31,900 -2,627 Descending Aus ATC (RADAR)
Thu 10:48:43 PM -34.5565 149.8088 62° Northeast 442 509 26,400 -2,394 Descending Aus ATC (RADAR)
Thu 10:49:37 PM -34.5036 149.9285 62° Northeast 426 490 24,400 -2,250 Descending Aus ATC (RADAR)
Thu 10:50:27 PM -34.4571 150.0346 62° Northeast 415 478 22,500 -2,259 Descending Aus ATC (RADAR)
Thu 10:51:02 PM -34.4250 150.1063 62° Northeast 404 465 21,200 -2,188 Descending Aus ATC (RADAR)
Thu 10:51:52 PM -34.3803 150.2070 62° Northeast 394 453 19,400 -2,100 Descending Aus ATC (RADAR)
Thu 10:53:42 PM -34.2863 150.4177 62° Northeast 371 427 15,600 -2,047 Descending Aus ATC (RADAR)
Thu 10:54:42 PM -34.2375 150.5270 62° Northeast 355 409 13,600 -1,980 Descending Aus ATC (RADAR)
Thu 10:55:22 PM -34.2053 150.5988 62° Northeast 353 406 12,300 -2,000 Descending Aus ATC (RADAR)
Thu 10:55:57 PM -34.1774 150.6608 62° Northeast 348 400 11,100 -1,553 Descending Aus ATC (RADAR)
Thu 10:56:47 PM -34.1390 150.7468 61° Northeast 335 386 10,100 -1,123 Descending Aus ATC (RADAR)
Thu 10:58:32 PM -34.0649 150.9108 62° Northeast 305 351 8,200 -1,067 Descending Aus ATC (RADAR)
Thu 10:59:02 PM -34.0444 150.9564 80° East 301 346 7,700 -923 Descending Aus ATC (RADAR)
Thu 10:59:37 PM -34.0361 151.0139 130° Southeast 305 351 7,200 -1,120 Descending Aus ATC (RADAR)
Thu 11:00:17 PM -34.0722 151.0666 160° South 302 348 6,300 -1,440 Descending Aus ATC (RADAR)
Thu 11:00:52 PM -34.1167 151.0866 168° South 293 337 5,400 -1,215 Descending Aus ATC (RADAR)
Thu 11:01:36 PM -34.1748 151.1017 158° South 283 326 4,700 -811 Descending Aus ATC (RADAR)
Thu 11:02:06 PM -34.2097 151.1189 73° East 274 315 4,400 -545 Descending Aus ATC (RADAR)
Thu 11:03:26 PM -34.1882 151.2046 13° North 226 260 3,700 -470 Descending Aus ATC (RADAR)
Thu 11:04:01 PM -34.1558 151.2139 North 204 235 3,500 -494 Descending Aus ATC (RADAR)
Thu 11:04:51 PM -34.1144 151.2202 347° North 178 205 3,000 -780 Descending Aus ATC (RADAR)
Thu 11:05:41 PM -34.0768 151.2099 348° North 165 190 2,200 -918 Descending Aus ATC (RADAR)
Thu 11:06:16 PM -34.0518 151.2035 348° North 157 181 1,700 -776 Descending Aus ATC (RADAR)
Thu 11:07:06 PM -34.0195 151.1951 348° North 140 161 1,100 -720 Descending Aus ATC (RADAR)

Login

Don't have an account? Register now (free) for customized features, flight alerts, and more!